Yazıbaşı Köyü, Turkey

11:58 PM EEST on August 30, 2015 (GMT +0300)
Sivas | | Change Station
CLOSE
Current Station
Airport
Location: Sivas,
Elevation: 5233 ft
Nearby Weather Stations

Elev 5233 ft 39.80 °N, 36.89 °E | Updated 1 hour ago

Clear
Clear
54 °F
Feels Like 54 °F
N
5
Wind Variable Wind from North

Today
High -- | Low -- °F
--% Chance of Precip.
Yesterday
High -- | Low -- °F
Precip. -- in
5:57 AM 7:07 PM
Full, 98% visible
Pressure 30.24 in
Visibility -9999.0 miles
Clouds
Dew Point 46 °F
Humidity 77%
Rainfall 0.00 in
Snow Depth Not available.
UV Not available.
Pollen Not available.
Air Quality Not available.
Flu Activity Not available.
METAR LTAR 301950Z 36004KT CAVOK 12/08 Q1024
Pressure 30.24 in
Visibility -9999.0 miles
Clouds
Dew Point 46 °F
Humidity 77%
Rainfall 0.00 in
Snow Depth Not available.
UV Not available.
Pollen Not available.
Air Quality Not available.
Flu Activity Not available.
METAR LTAR 301950Z 36004KT CAVOK 12/08 Q1024

10-Day Weather Forecast

×

Almanac

Astronomy

Aug. 30, 2015 Rise Set
Actual Time
Civil Twilight
Nautical Twilight
Astronomical Twilight
Moon
Length of Visible Light
Length of Day
Tomorrow will be .
, % of the Moon is Illuminated

Today's Extremes

Country Highs Country Lows

Community

WunderPhotos

Upload Photos

1,851,057 photos uploaded!

WunderBlogs® & News

Nearby

Air Quality

  Air Quality AQ Index Pollutant
Not available.

Snow Depth

Station Depth Elevation

Earthquake Activity

City Distance Mag. Time & Date
Minimum magnitude displayed is 2.5.

Coastal Water Temperatures

Place Temperature

Stations

Nearby Weather Stations

Station Location Temp. Windchill Dew Point Humidity Wind Precip. Elev Updated Type